createdAt,value
2016-12-26T00:00:07.205Z,43.19
2016-12-26T00:00:47.740Z,43.1
2016-12-26T00:01:28.290Z,43
2016-12-26T00:02:08.817Z,43.29
2016-12-26T00:02:49.340Z,43.38
2016-12-26T00:03:29.871Z,43
2016-12-26T00:04:10.392Z,43.84
2016-12-26T00:04:50.931Z,43.84
2016-12-26T00:05:31.476Z,43.94
2016-12-26T00:06:12.006Z,43.19
2016-12-26T00:06:52.534Z,43.19
2016-12-26T00:07:33.064Z,42.9
2016-12-26T00:08:13.608Z,43.27
2016-12-26T00:08:54.190Z,43.27
2016-12-26T00:09:34.735Z,43.38
2016-12-26T00:10:15.266Z,43.38
2016-12-26T00:10:55.784Z,43.29
2016-12-26T00:11:36.315Z,43.38
2016-12-26T00:12:16.843Z,43.19
2016-12-26T00:12:57.387Z,43
2016-12-26T00:13:37.920Z,42.81
2016-12-26T00:14:18.460Z,43.1
2016-12-26T00:14:58.987Z,43.29
2016-12-26T00:15:39.649Z,43.29
2016-12-26T00:16:20.398Z,43.19
2016-12-26T00:17:00.941Z,43.29
2016-12-26T00:17:41.475Z,43.19
2016-12-26T00:18:22.022Z,43.29
2016-12-26T00:19:02.574Z,43.17
2016-12-26T00:19:43.107Z,43.19
2016-12-26T00:20:23.639Z,43
2016-12-26T00:21:04.212Z,43.17
2016-12-26T00:21:44.745Z,43.29
2016-12-26T00:22:25.301Z,43.29
2016-12-26T00:23:05.856Z,43.29
2016-12-26T00:23:46.454Z,43.17
2016-12-26T00:24:26.973Z,43.38
2016-12-26T00:25:07.493Z,42.9
2016-12-26T00:25:48.023Z,43.29
2016-12-26T00:26:28.553Z,42.81
2016-12-26T00:27:09.097Z,43.19
2016-12-26T00:27:49.621Z,43.1
2016-12-26T00:28:30.157Z,43.19
2016-12-26T00:29:10.688Z,43.29
2016-12-26T00:29:51.214Z,43.19
2016-12-26T00:30:31.760Z,43.1
2016-12-26T00:31:12.289Z,42.9
2016-12-26T00:31:52.833Z,42.81
2016-12-26T00:32:33.386Z,42.81
2016-12-26T00:33:13.911Z,42.9
2016-12-26T00:33:54.436Z,42.71
2016-12-26T00:34:34.968Z,43
2016-12-26T00:35:15.489Z,42.9
2016-12-26T00:35:56.016Z,42.71
2016-12-26T00:36:36.547Z,42.81
2016-12-26T00:37:17.082Z,42.9
2016-12-26T00:37:57.603Z,42.9
2016-12-26T00:38:38.139Z,42.9
2016-12-26T00:39:18.670Z,42.81
2016-12-26T00:39:59.191Z,43.1
2016-12-26T00:40:39.714Z,42.81
2016-12-26T00:41:20.315Z,43.19
2016-12-26T00:42:00.870Z,43.29
2016-12-26T00:42:41.395Z,42.81
2016-12-26T00:43:22.040Z,43
2016-12-26T00:44:02.539Z,42.71
2016-12-26T00:44:43.070Z,43.1
2016-12-26T00:45:23.637Z,42.9
2016-12-26T00:46:04.164Z,43.19
2016-12-26T00:46:44.728Z,43
2016-12-26T00:47:25.256Z,42.71
2016-12-26T00:48:05.807Z,43
2016-12-26T00:48:46.321Z,42.9
2016-12-26T00:49:26.857Z,43
2016-12-26T00:50:07.414Z,42.81
2016-12-26T00:50:47.936Z,42.9
2016-12-26T00:51:28.466Z,43
2016-12-26T00:52:08.995Z,43.19
2016-12-26T00:52:49.631Z,43
2016-12-26T00:53:30.257Z,43.1
2016-12-26T00:54:10.787Z,42.9
2016-12-26T00:54:51.308Z,42.81
2016-12-26T00:55:31.860Z,42.81
2016-12-26T00:56:12.372Z,42.9
2016-12-26T00:56:52.921Z,42.81
2016-12-26T00:57:33.453Z,42.71
2016-12-26T00:58:13.986Z,43.19
2016-12-26T00:58:54.517Z,43
2016-12-26T00:59:35.048Z,42.61
2016-12-26T01:00:15.574Z,42.81
2016-12-26T01:00:56.115Z,42.81
2016-12-26T01:01:36.661Z,43
2016-12-26T01:02:17.206Z,42.9
2016-12-26T01:02:57.739Z,43.1
2016-12-26T01:03:38.268Z,43.19
2016-12-26T01:04:18.811Z,42.81
2016-12-26T01:04:59.350Z,43.1
2016-12-26T01:05:39.881Z,42.71
2016-12-26T01:06:20.404Z,42.9
2016-12-26T01:07:00.937Z,43
2016-12-26T01:07:41.460Z,43
2016-12-26T01:08:22.010Z,42.81
2016-12-26T01:09:02.528Z,43.1
2016-12-26T01:09:43.065Z,43.19
2016-12-26T01:10:23.595Z,43.19
2016-12-26T01:11:04.110Z,43
2016-12-26T01:11:44.651Z,42.81
2016-12-26T01:12:25.182Z,42.71
2016-12-26T01:13:05.707Z,42.81
2016-12-26T01:13:46.243Z,42.81
2016-12-26T01:14:26.781Z,42.9
2016-12-26T01:15:07.299Z,42.81
2016-12-26T01:15:47.830Z,43.1
2016-12-26T01:16:28.368Z,43.1
2016-12-26T01:17:08.885Z,42.81
2016-12-26T01:17:49.411Z,43
2016-12-26T01:18:29.940Z,42.9
2016-12-26T01:19:10.466Z,43.07
2016-12-26T01:19:50.984Z,43.36
2016-12-26T01:20:31.510Z,43.07
2016-12-26T01:21:12.033Z,43.29
2016-12-26T01:21:52.553Z,42.9
2016-12-26T01:22:33.078Z,43.29
2016-12-26T01:23:13.608Z,43.19
2016-12-26T01:23:54.132Z,43.29
2016-12-26T01:24:34.661Z,43
2016-12-26T01:25:15.191Z,42.9
2016-12-26T01:25:55.728Z,43
2016-12-26T01:26:36.260Z,42.81
2016-12-26T01:27:16.788Z,43
2016-12-26T01:27:57.321Z,43.19
2016-12-26T01:28:37.856Z,43.19
2016-12-26T01:29:18.389Z,43.29
2016-12-26T01:29:58.924Z,43
2016-12-26T01:30:39.450Z,43.1
2016-12-26T01:31:19.985Z,43.19
2016-12-26T01:32:00.510Z,43.19
2016-12-26T01:32:41.063Z,42.9
2016-12-26T01:33:21.578Z,43.19
2016-12-26T01:34:02.109Z,42.71
2016-12-26T01:34:42.637Z,42.9
2016-12-26T01:35:23.182Z,42.71
2016-12-26T01:36:03.709Z,42.71
2016-12-26T01:36:44.223Z,42.81
2016-12-26T01:37:24.782Z,42.81
2016-12-26T01:38:05.317Z,43
2016-12-26T01:38:45.850Z,43
2016-12-26T01:39:26.368Z,42.71
2016-12-26T01:40:06.896Z,42.81
2016-12-26T01:40:47.432Z,42.81
2016-12-26T01:41:27.961Z,43
2016-12-26T01:42:08.488Z,42.81
2016-12-26T01:42:49.018Z,42.71
2016-12-26T01:43:29.546Z,42.71
2016-12-26T01:44:10.078Z,42.81
2016-12-26T01:44:50.612Z,42.61
2016-12-26T01:45:31.137Z,42.81
2016-12-26T01:46:11.671Z,42.71
2016-12-26T01:46:52.203Z,42.81
2016-12-26T01:47:32.730Z,43.19
2016-12-26T01:48:13.245Z,43.19
2016-12-26T01:48:53.786Z,43
2016-12-26T01:49:34.298Z,43.1
2016-12-26T01:50:14.830Z,43
2016-12-26T01:50:55.358Z,42.71
2016-12-26T01:51:35.889Z,42.61
2016-12-26T01:52:16.417Z,42.9
2016-12-26T01:52:56.941Z,42.61
2016-12-26T01:53:37.476Z,43.1
2016-12-26T01:54:17.998Z,43.19
2016-12-26T01:54:58.534Z,42.9
2016-12-26T01:55:39.062Z,42.81
2016-12-26T01:56:19.593Z,42.81
2016-12-26T01:57:00.118Z,42.71
2016-12-26T01:57:40.647Z,43
2016-12-26T01:58:21.172Z,42.71
2016-12-26T01:59:01.692Z,42.71
2016-12-26T01:59:42.226Z,43.1
2016-12-26T02:00:22.760Z,42.52
2016-12-26T02:01:03.290Z,42.71
2016-12-26T02:01:43.831Z,42.81
2016-12-26T02:02:24.364Z,43.1
2016-12-26T02:03:04.898Z,43.1
2016-12-26T02:03:45.410Z,42.71
2016-12-26T02:04:25.936Z,42.71
2016-12-26T02:05:06.481Z,42.9
2016-12-26T02:05:47.009Z,43.1
2016-12-26T02:06:27.529Z,42.71
2016-12-26T02:07:08.054Z,42.52
2016-12-26T02:07:48.581Z,42.61
2016-12-26T02:08:29.111Z,42.71
2016-12-26T02:09:09.641Z,43.1
2016-12-26T02:09:50.165Z,42.81
2016-12-26T02:10:30.693Z,42.61
2016-12-26T02:11:11.229Z,42.43
2016-12-26T02:11:51.758Z,42.33
2016-12-26T02:12:32.273Z,42.43
2016-12-26T02:13:12.783Z,42.33
2016-12-26T02:13:53.316Z,42.9
2016-12-26T02:14:33.847Z,42.71
2016-12-26T02:15:14.373Z,42.43
2016-12-26T02:15:54.912Z,42.71
2016-12-26T02:16:35.429Z,42.33
2016-12-26T02:17:15.956Z,42.52
2016-12-26T02:17:56.488Z,42.71
2016-12-26T02:18:37.007Z,42.52
2016-12-26T02:19:17.532Z,42.43
2016-12-26T02:19:58.065Z,42.33
2016-12-26T02:20:38.595Z,42.43
2016-12-26T02:21:19.121Z,42.33
2016-12-26T02:21:59.651Z,42.81
2016-12-26T02:22:40.179Z,42.52
2016-12-26T02:23:20.720Z,42.33
2016-12-26T02:24:01.244Z,42.33
2016-12-26T02:24:41.766Z,42.52
2016-12-26T02:25:22.279Z,42.81
2016-12-26T02:26:02.804Z,42.71
2016-12-26T02:26:43.331Z,42.43
2016-12-26T02:27:23.874Z,42.23
2016-12-26T02:28:04.414Z,42.33
2016-12-26T02:28:44.942Z,42.33
2016-12-26T02:29:25.475Z,42.43
2016-12-26T02:30:06.001Z,42.23
2016-12-26T02:30:46.537Z,42.33
2016-12-26T02:31:27.072Z,42.71
2016-12-26T02:32:07.636Z,42.33
2016-12-26T02:32:48.157Z,42.33
2016-12-26T02:33:28.686Z,42.71
2016-12-26T02:34:09.218Z,42.71
2016-12-26T02:34:49.752Z,42.9
2016-12-26T02:35:30.280Z,43.1
2016-12-26T02:36:10.817Z,42.81
2016-12-26T02:36:51.350Z,42.81
2016-12-26T02:37:31.877Z,42.81
2016-12-26T02:38:12.412Z,42.9
2016-12-26T02:38:52.943Z,43.1
2016-12-26T02:39:33.470Z,42.61
2016-12-26T02:40:14.011Z,42.61
2016-12-26T02:40:54.533Z,42.61
2016-12-26T02:41:35.063Z,42.43
2016-12-26T02:42:15.589Z,42.33
2016-12-26T02:42:56.117Z,42.71
2016-12-26T02:43:36.646Z,43.1
2016-12-26T02:44:17.175Z,43.1
2016-12-26T02:44:57.702Z,42.9
2016-12-26T02:45:38.220Z,43
2016-12-26T02:46:18.750Z,42.52
2016-12-26T02:46:59.277Z,42.43
2016-12-26T02:47:39.812Z,42.43
2016-12-26T02:48:20.350Z,42.43
2016-12-26T02:49:00.879Z,42.33
2016-12-26T02:49:41.416Z,42.71
2016-12-26T02:50:21.947Z,42.61
2016-12-26T02:51:02.471Z,42.43
2016-12-26T02:51:43.010Z,42.81
2016-12-26T02:52:23.535Z,42.81
2016-12-26T02:53:04.064Z,43
2016-12-26T02:53:44.588Z,42.81
2016-12-26T02:54:25.099Z,42.71
2016-12-26T02:55:05.628Z,42.71
2016-12-26T02:55:46.162Z,42.9
2016-12-26T02:56:26.708Z,43
2016-12-26T02:57:07.232Z,42.9
2016-12-26T02:57:47.761Z,42.9
2016-12-26T02:58:28.283Z,42.81
2016-12-26T02:59:08.809Z,42.81
2016-12-26T02:59:49.344Z,42.81
2016-12-26T03:00:29.869Z,43.1
2016-12-26T03:01:10.400Z,42.71
2016-12-26T03:01:50.925Z,42.71
2016-12-26T03:02:31.453Z,42.33
2016-12-26T03:03:11.992Z,42.71
2016-12-26T03:03:52.520Z,42.61
2016-12-26T03:04:33.051Z,42.52
2016-12-26T03:05:13.577Z,42.43
2016-12-26T03:05:54.116Z,42.43
2016-12-26T03:06:34.646Z,43.1
2016-12-26T03:07:15.163Z,43
2016-12-26T03:07:55.738Z,42.71
2016-12-26T03:08:36.304Z,42.71
2016-12-26T03:09:16.868Z,43.1
2016-12-26T03:09:57.458Z,43
2016-12-26T03:10:38.038Z,43
2016-12-26T03:11:18.619Z,43.1
2016-12-26T03:11:59.201Z,42.33
2016-12-26T03:12:39.778Z,42.33
2016-12-26T03:13:20.355Z,42.43
2016-12-26T03:14:00.935Z,42.33
2016-12-26T03:14:41.507Z,42.43
2016-12-26T03:15:22.066Z,42.33
2016-12-26T03:16:02.639Z,42.33
2016-12-26T03:16:43.205Z,42.52
2016-12-26T03:17:23.773Z,42.52
2016-12-26T03:18:04.352Z,42.43
2016-12-26T03:18:44.924Z,42.81
2016-12-26T03:19:25.499Z,42.81
2016-12-26T03:20:06.075Z,42.81
2016-12-26T03:20:46.657Z,42.81
2016-12-26T03:21:27.232Z,42.43
2016-12-26T03:22:07.809Z,42.33
2016-12-26T03:22:48.385Z,42.43
2016-12-26T03:23:28.963Z,42.33
2016-12-26T03:24:09.544Z,42.61
2016-12-26T03:24:50.118Z,42.52
2016-12-26T03:25:30.703Z,42.61
2016-12-26T03:26:11.281Z,42.33
2016-12-26T03:26:51.857Z,42.71
2016-12-26T03:27:32.443Z,42.61
2016-12-26T03:28:13.019Z,42.61
2016-12-26T03:28:53.602Z,42.61
2016-12-26T03:29:34.184Z,42.71
2016-12-26T03:30:14.763Z,42.13
2016-12-26T03:30:55.355Z,42.71
2016-12-26T03:31:35.919Z,42.71
2016-12-26T03:32:16.446Z,42.52
2016-12-26T03:32:56.980Z,42.33
2016-12-26T03:33:37.511Z,42.71
2016-12-26T03:34:18.039Z,42.52
2016-12-26T03:34:58.565Z,42.61
2016-12-26T03:35:39.100Z,42.71
2016-12-26T03:36:19.629Z,42.04
2016-12-26T03:37:00.158Z,42.33
2016-12-26T03:37:40.688Z,42.23
2016-12-26T03:38:21.228Z,42.61
2016-12-26T03:39:01.757Z,42.81
2016-12-26T03:39:42.281Z,42.81
2016-12-26T03:40:22.812Z,43.1
2016-12-26T03:41:03.345Z,43.1
2016-12-26T03:41:43.872Z,42.71
2016-12-26T03:42:24.405Z,42.81
2016-12-26T03:43:04.939Z,42.81
2016-12-26T03:43:45.511Z,42.52
2016-12-26T03:44:26.087Z,42.71
2016-12-26T03:45:06.654Z,42.43
2016-12-26T03:45:47.231Z,42.52
2016-12-26T03:46:27.812Z,42.43
2016-12-26T03:47:08.395Z,42.33
2016-12-26T03:47:48.973Z,42.33
2016-12-26T03:48:29.553Z,42.52
2016-12-26T03:49:10.129Z,42.71
2016-12-26T03:49:50.712Z,42.33
2016-12-26T03:50:31.293Z,42.61
2016-12-26T03:51:11.872Z,42.71
2016-12-26T03:51:52.444Z,42.43
2016-12-26T03:52:32.965Z,42.71
2016-12-26T03:53:13.503Z,42.71
2016-12-26T03:53:54.035Z,42.33
2016-12-26T03:54:34.618Z,42.43
2016-12-26T03:55:15.186Z,42.43
2016-12-26T03:55:55.769Z,42.23
2016-12-26T03:56:36.348Z,42.43
2016-12-26T03:57:16.926Z,42.43
2016-12-26T03:57:57.507Z,42.33
2016-12-26T03:58:38.080Z,42.61
2016-12-26T03:59:18.667Z,42.61
2016-12-26T03:59:59.246Z,42.81
2016-12-26T04:00:39.815Z,42.61
2016-12-26T04:01:20.391Z,42.33
2016-12-26T04:02:00.969Z,42.43
2016-12-26T04:02:41.535Z,42.61
2016-12-26T04:03:22.121Z,42.61
2016-12-26T04:04:02.690Z,42.33
2016-12-26T04:04:43.280Z,42.43
2016-12-26T04:05:23.861Z,42.43
2016-12-26T04:06:04.438Z,42.43
2016-12-26T04:06:45.012Z,42.52
2016-12-26T04:07:25.592Z,42.52
2016-12-26T04:08:06.167Z,42.43
2016-12-26T04:08:46.746Z,42.71
2016-12-26T04:09:27.328Z,42.69
2016-12-26T04:10:07.904Z,42.9
2016-12-26T04:10:48.483Z,43.19
2016-12-26T04:11:29.056Z,42.71
2016-12-26T04:12:09.633Z,42.81
2016-12-26T04:12:50.219Z,42.81
2016-12-26T04:13:30.800Z,42.69
2016-12-26T04:14:11.383Z,42.71
2016-12-26T04:14:51.957Z,42.43
2016-12-26T04:15:32.553Z,42.33
2016-12-26T04:16:13.120Z,42.33
2016-12-26T04:16:53.695Z,42.52
2016-12-26T04:17:34.275Z,42.61
2016-12-26T04:18:14.853Z,42.33
2016-12-26T04:18:55.424Z,42.43
2016-12-26T04:19:36.001Z,42.33
2016-12-26T04:20:16.563Z,42.33
2016-12-26T04:20:57.139Z,42.43
2016-12-26T04:21:37.713Z,42.43
2016-12-26T04:22:18.289Z,42.33
2016-12-26T04:22:58.869Z,42.43
2016-12-26T04:23:39.451Z,42.33
2016-12-26T04:24:20.021Z,42.71
2016-12-26T04:25:00.597Z,42.33
2016-12-26T04:25:41.176Z,42.61
2016-12-26T04:26:21.758Z,42.43
2016-12-26T04:27:02.345Z,42.3
2016-12-26T04:27:42.915Z,42.61
2016-12-26T04:28:23.494Z,42.33
2016-12-26T04:29:04.060Z,42.6
2016-12-26T04:29:44.643Z,42.61
2016-12-26T04:30:25.219Z,42.79
2016-12-26T04:31:05.794Z,42.69
2016-12-26T04:31:46.379Z,42.33
2016-12-26T04:32:26.958Z,42.81
2016-12-26T04:33:07.534Z,42.61
2016-12-26T04:33:48.118Z,42.79
2016-12-26T04:34:28.695Z,42.71
2016-12-26T04:35:09.274Z,42.4
2016-12-26T04:35:49.851Z,42.71
2016-12-26T04:36:30.428Z,42.4
2016-12-26T04:37:11.005Z,42.69
2016-12-26T04:37:51.583Z,42.71
2016-12-26T04:38:32.161Z,42.71
2016-12-26T04:39:12.739Z,42.79
2016-12-26T04:39:53.316Z,42.52
2016-12-26T04:40:33.889Z,42.69
2016-12-26T04:41:14.472Z,42.69
2016-12-26T04:41:55.057Z,42.81
2016-12-26T04:42:35.632Z,42.33
2016-12-26T04:43:16.210Z,42.61
2016-12-26T04:43:56.796Z,42.61
2016-12-26T04:44:37.376Z,42.6
2016-12-26T04:45:17.958Z,42.5
2016-12-26T04:45:58.542Z,42.6
2016-12-26T04:46:39.120Z,42.79
2016-12-26T04:47:19.704Z,42.79
2016-12-26T04:48:00.274Z,42.79
2016-12-26T04:48:40.851Z,42.43
2016-12-26T04:49:21.432Z,42.33
2016-12-26T04:50:01.956Z,42.23
2016-12-26T04:50:42.485Z,42.23
2016-12-26T04:51:23.011Z,42.61
2016-12-26T04:52:03.551Z,42.4
2016-12-26T04:52:44.081Z,42.52
2016-12-26T04:53:24.606Z,42.21
2016-12-26T04:54:05.143Z,42.4
2016-12-26T04:54:45.672Z,42.5
2016-12-26T04:55:26.196Z,42.69
2016-12-26T04:56:06.734Z,42.81
2016-12-26T04:56:47.263Z,42.33
2016-12-26T04:57:27.797Z,42.33
2016-12-26T04:58:08.313Z,42.4
2016-12-26T04:58:48.837Z,42.61
2016-12-26T04:59:29.381Z,42.71
2016-12-26T05:00:09.905Z,42.43
2016-12-26T05:00:50.435Z,42.52
2016-12-26T05:01:30.971Z,42.52
2016-12-26T05:02:11.499Z,42.71
2016-12-26T05:02:52.032Z,42.71
2016-12-26T05:03:32.565Z,42.61
2016-12-26T05:04:13.096Z,42.3
2016-12-26T05:04:53.618Z,42.5
2016-12-26T05:05:34.141Z,42.69
2016-12-26T05:06:14.688Z,42.79
2016-12-26T05:06:55.216Z,42.3
2016-12-26T05:07:35.749Z,42.43
2016-12-26T05:08:16.286Z,42.71
2016-12-26T05:08:56.819Z,42.6
2016-12-26T05:09:37.351Z,42.43
2016-12-26T05:10:17.876Z,42.33
2016-12-26T05:10:58.398Z,42.23
2016-12-26T05:11:38.925Z,42.33
2016-12-26T05:12:19.455Z,42.52
2016-12-26T05:12:59.984Z,42.6
2016-12-26T05:13:40.509Z,42.79
2016-12-26T05:14:21.041Z,42.5
2016-12-26T05:15:01.564Z,42.71
2016-12-26T05:15:42.095Z,42.23
2016-12-26T05:16:22.626Z,42.21
2016-12-26T05:17:03.148Z,42.71
2016-12-26T05:17:43.677Z,42.71
2016-12-26T05:18:24.204Z,42.3
2016-12-26T05:19:04.725Z,42.5
2016-12-26T05:19:45.261Z,42.43
2016-12-26T05:20:25.794Z,42.69
2016-12-26T05:21:06.333Z,42.3
2016-12-26T05:21:46.857Z,42.4
2016-12-26T05:22:27.389Z,42.69
2016-12-26T05:23:07.933Z,42.3
2016-12-26T05:23:48.460Z,42.5
2016-12-26T05:24:28.995Z,42.61
2016-12-26T05:25:09.511Z,42.04
2016-12-26T05:25:50.044Z,42.61
2016-12-26T05:26:30.571Z,42.13
2016-12-26T05:27:11.108Z,42.33
2016-12-26T05:27:51.639Z,42.71
2016-12-26T05:28:32.165Z,42.4
2016-12-26T05:29:12.687Z,42.61
2016-12-26T05:29:53.227Z,42.69
2016-12-26T05:30:33.748Z,42.61
2016-12-26T05:31:14.285Z,42.43
2016-12-26T05:31:54.809Z,42.21
2016-12-26T05:32:35.341Z,42.61
2016-12-26T05:33:15.879Z,42.71
2016-12-26T05:33:56.414Z,42.13
2016-12-26T05:34:36.945Z,42.23
2016-12-26T05:35:17.475Z,42.5
2016-12-26T05:35:57.993Z,42.6
2016-12-26T05:36:38.515Z,42.6
2016-12-26T05:37:19.052Z,42.5
2016-12-26T05:37:59.581Z,42.5
2016-12-26T05:38:40.116Z,42.3
2016-12-26T05:39:20.648Z,42.5
2016-12-26T05:40:01.173Z,42.4
2016-12-26T05:40:41.702Z,42.88
2016-12-26T05:41:22.260Z,42.88
2016-12-26T05:42:02.787Z,43
2016-12-26T05:42:43.320Z,42.3
2016-12-26T05:43:23.848Z,42.52
2016-12-26T05:44:04.381Z,42.79
2016-12-26T05:44:44.904Z,42.3
2016-12-26T05:45:25.438Z,42.71
2016-12-26T05:46:05.964Z,42.71
2016-12-26T05:46:46.504Z,42.5
2016-12-26T05:47:27.031Z,42.3
2016-12-26T05:48:07.570Z,42.3
2016-12-26T05:48:48.101Z,42.69
2016-12-26T05:49:28.625Z,42.4
2016-12-26T05:50:09.156Z,42.61
2016-12-26T05:50:49.733Z,42.3
2016-12-26T05:51:30.265Z,42.5
2016-12-26T05:52:10.790Z,42.71
2016-12-26T05:52:51.330Z,42.6
2016-12-26T05:53:31.859Z,42.21
2016-12-26T05:54:12.382Z,42.4
2016-12-26T05:54:52.915Z,42.4
2016-12-26T05:55:33.436Z,42.4
2016-12-26T05:56:13.970Z,42.5
2016-12-26T05:56:54.502Z,42.33
2016-12-26T05:57:35.022Z,42.04
2016-12-26T05:58:15.557Z,42.13
2016-12-26T05:58:56.083Z,42.23
2016-12-26T05:59:36.616Z,42.71
2016-12-26T06:00:17.138Z,42.6
2016-12-26T06:00:57.677Z,42.69
2016-12-26T06:01:38.209Z,42.71
2016-12-26T06:02:18.744Z,42.43
2016-12-26T06:02:59.262Z,42.04
2016-12-26T06:03:39.783Z,42.13
2016-12-26T06:04:20.340Z,42.6
2016-12-26T06:05:00.861Z,42.5
2016-12-26T06:05:41.393Z,42.4
2016-12-26T06:06:21.908Z,42.69
2016-12-26T06:07:02.441Z,42.3
2016-12-26T06:07:42.964Z,42.5
2016-12-26T06:08:23.534Z,42.6
2016-12-26T06:09:04.056Z,42.4
2016-12-26T06:09:44.584Z,42.4
2016-12-26T06:10:25.121Z,42.81
2016-12-26T06:11:05.651Z,42.79
2016-12-26T06:11:46.173Z,42.88
2016-12-26T06:12:26.703Z,43.1
2016-12-26T06:13:07.238Z,42.88
2016-12-26T06:13:47.761Z,42.88
2016-12-26T06:14:28.291Z,42.6
2016-12-26T06:15:08.828Z,42.4
2016-12-26T06:15:49.356Z,42.4
2016-12-26T06:16:29.882Z,42.6
2016-12-26T06:17:10.411Z,42.61
2016-12-26T06:17:50.946Z,42.69
2016-12-26T06:18:31.478Z,42.3
2016-12-26T06:19:12.010Z,42.3
2016-12-26T06:19:52.534Z,42.23
2016-12-26T06:20:33.067Z,42.69
2016-12-26T06:21:13.593Z,42.69
2016-12-26T06:21:54.116Z,42.4
2016-12-26T06:22:34.644Z,42.3
2016-12-26T06:23:15.189Z,42.3
2016-12-26T06:23:55.707Z,42.5
2016-12-26T06:24:36.234Z,42.79
2016-12-26T06:25:16.758Z,42.6
2016-12-26T06:25:57.290Z,42.6
2016-12-26T06:26:37.828Z,42.3
2016-12-26T06:27:18.363Z,42.3
2016-12-26T06:27:58.898Z,42.4
2016-12-26T06:28:39.424Z,42.69
2016-12-26T06:29:19.961Z,42.6
2016-12-26T06:30:00.489Z,42.69
2016-12-26T06:30:41.025Z,42.52
2016-12-26T06:31:21.550Z,42.33
2016-12-26T06:32:02.083Z,42.33
2016-12-26T06:32:42.616Z,42.33
2016-12-26T06:33:23.151Z,42.6
2016-12-26T06:34:03.679Z,42.4
2016-12-26T06:34:44.228Z,42.61
2016-12-26T06:35:24.775Z,42.61
2016-12-26T06:36:05.298Z,42.3
2016-12-26T06:36:45.825Z,42.5
2016-12-26T06:37:26.371Z,42.6
2016-12-26T06:38:06.903Z,42.69
2016-12-26T06:38:47.430Z,42.61
2016-12-26T06:39:27.969Z,42.52
2016-12-26T06:40:08.500Z,42.33
2016-12-26T06:40:49.032Z,42.33
2016-12-26T06:41:29.563Z,42.43
2016-12-26T06:42:10.096Z,42.04
2016-12-26T06:42:50.632Z,42.33
2016-12-26T06:43:31.155Z,42.23
2016-12-26T06:44:11.690Z,42.04
2016-12-26T06:44:52.221Z,42.04
2016-12-26T06:45:32.749Z,42.33
2016-12-26T06:46:13.279Z,42.43
2016-12-26T06:46:53.811Z,42.43
2016-12-26T06:47:34.348Z,42.23
2016-12-26T06:48:14.878Z,42.43
2016-12-26T06:48:55.405Z,42.13
2016-12-26T06:49:35.938Z,42.11
2016-12-26T06:50:16.461Z,42.69
2016-12-26T06:50:57.004Z,42.5
2016-12-26T06:51:37.535Z,42.6
2016-12-26T06:52:18.070Z,42.3
2016-12-26T06:52:58.601Z,42.4
2016-12-26T06:53:39.133Z,42.4
2016-12-26T06:54:19.657Z,42.3
2016-12-26T06:55:00.183Z,42.3
2016-12-26T06:55:40.708Z,42.3
2016-12-26T06:56:21.234Z,42.4
2016-12-26T06:57:01.781Z,42.4
2016-12-26T06:57:42.308Z,42.4
2016-12-26T06:58:22.839Z,42.6
2016-12-26T06:59:03.365Z,42.4
2016-12-26T06:59:43.895Z,42.4
2016-12-26T07:00:24.427Z,42.69
2016-12-26T07:01:04.950Z,42.6
2016-12-26T07:01:45.481Z,42.61
2016-12-26T07:02:26.015Z,42.61
2016-12-26T07:03:06.553Z,42.69
2016-12-26T07:03:47.075Z,42.69
2016-12-26T07:04:27.608Z,42.33
2016-12-26T07:05:08.140Z,42.6
2016-12-26T07:05:48.666Z,42.52
2016-12-26T07:06:29.201Z,42.3
2016-12-26T07:07:09.736Z,42.3
2016-12-26T07:07:50.268Z,42.5
2016-12-26T07:08:30.780Z,42.5
2016-12-26T07:09:11.305Z,42.81
2016-12-26T07:09:51.838Z,42.52
2016-12-26T07:10:32.375Z,42.04
2016-12-26T07:11:12.901Z,42.04
2016-12-26T07:11:53.429Z,42.71
2016-12-26T07:12:33.952Z,42.61
2016-12-26T07:13:14.490Z,42.71
2016-12-26T07:13:55.016Z,42.52
2016-12-26T07:14:35.558Z,42.71
2016-12-26T07:15:16.095Z,42.79
2016-12-26T07:15:56.630Z,42.43
2016-12-26T07:16:37.154Z,42.61
2016-12-26T07:17:17.704Z,42.71
2016-12-26T07:17:58.227Z,42.23
2016-12-26T07:18:38.758Z,42.23
2016-12-26T07:19:19.295Z,42.43
2016-12-26T07:19:59.822Z,42.61
2016-12-26T07:20:40.389Z,42.71
2016-12-26T07:21:20.922Z,42.33
2016-12-26T07:22:01.453Z,42.71
2016-12-26T07:22:41.987Z,42.61
2016-12-26T07:23:22.504Z,42.71
2016-12-26T07:24:03.031Z,42.61
2016-12-26T07:24:43.569Z,42.13
2016-12-26T07:25:24.094Z,42.04
2016-12-26T07:26:04.618Z,42.5
2016-12-26T07:26:45.149Z,42.71
2016-12-26T07:27:25.675Z,42.5
2016-12-26T07:28:06.203Z,42.69
2016-12-26T07:28:46.735Z,42.6
2016-12-26T07:29:27.262Z,42.71
2016-12-26T07:30:07.798Z,42.52
2016-12-26T07:30:48.323Z,42.61
2016-12-26T07:31:28.853Z,42.71
2016-12-26T07:32:09.373Z,42.13
2016-12-26T07:32:49.903Z,42.13
2016-12-26T07:33:30.433Z,42.23
2016-12-26T07:34:10.961Z,42.61
2016-12-26T07:34:51.478Z,42.5
2016-12-26T07:35:32.022Z,42.3
2016-12-26T07:36:12.547Z,42.4
2016-12-26T07:36:53.077Z,42.23
2016-12-26T07:37:33.600Z,42.33
2016-12-26T07:38:14.136Z,42.04
2016-12-26T07:38:54.654Z,42.13
2016-12-26T07:39:35.233Z,42.04
2016-12-26T07:40:15.812Z,42.33
2016-12-26T07:40:56.387Z,42.13
2016-12-26T07:41:36.958Z,42.33
2016-12-26T07:42:17.535Z,42.13
2016-12-26T07:42:58.147Z,42.61
2016-12-26T07:43:38.731Z,42.52
2016-12-26T07:44:19.308Z,42.4
2016-12-26T07:44:59.887Z,42.6
2016-12-26T07:45:40.452Z,42.52
2016-12-26T07:46:21.035Z,42.6
2016-12-26T07:47:01.604Z,42.88
2016-12-26T07:47:42.169Z,42.81
2016-12-26T07:48:22.742Z,42.43
2016-12-26T07:49:03.309Z,42.33
2016-12-26T07:49:43.886Z,42.52
2016-12-26T07:50:24.464Z,42.33
2016-12-26T07:51:05.038Z,42.33
2016-12-26T07:51:45.623Z,42.33
2016-12-26T07:52:26.205Z,42.81
2016-12-26T07:53:06.774Z,42.61
2016-12-26T07:53:47.352Z,42.61
2016-12-26T07:54:27.930Z,42.81
2016-12-26T07:55:08.501Z,43
2016-12-26T07:55:49.061Z,42.81
2016-12-26T07:56:29.623Z,42.98
2016-12-26T07:57:10.198Z,43
2016-12-26T07:57:50.780Z,43.1
2016-12-26T07:58:31.347Z,43.17
2016-12-26T07:59:11.910Z,42.71
2016-12-26T07:59:52.433Z,43
2016-12-26T08:00:32.953Z,42.88
2016-12-26T08:01:13.480Z,42.9
2016-12-26T08:01:54.033Z,42.71
2016-12-26T08:02:34.598Z,43
2016-12-26T08:03:15.129Z,43.17
2016-12-26T08:03:55.693Z,43.19
2016-12-26T08:04:36.275Z,43.29
2016-12-26T08:05:16.875Z,42.98
2016-12-26T08:05:57.463Z,43.27
2016-12-26T08:06:38.028Z,43.27
2016-12-26T08:07:18.608Z,43.29
2016-12-26T08:07:59.185Z,43.1
2016-12-26T08:08:39.755Z,43
2016-12-26T08:09:20.336Z,43
2016-12-26T08:10:00.901Z,43
2016-12-26T08:10:41.478Z,42.88
2016-12-26T08:11:22.060Z,43.36
2016-12-26T08:12:02.624Z,43.19
2016-12-26T08:12:43.202Z,43.29
2016-12-26T08:13:23.776Z,43
2016-12-26T08:14:04.347Z,42.71
2016-12-26T08:14:44.939Z,42.71
2016-12-26T08:15:25.505Z,42.81
2016-12-26T08:16:06.071Z,43.19
2016-12-26T08:16:46.648Z,43
2016-12-26T08:17:27.226Z,43.19
2016-12-26T08:18:07.805Z,43.1
2016-12-26T08:18:48.378Z,43.19
2016-12-26T08:19:28.953Z,42.81
2016-12-26T08:20:09.519Z,42.9
2016-12-26T08:20:50.098Z,42.9
2016-12-26T08:21:30.683Z,42.9
2016-12-26T08:22:11.259Z,42.9
2016-12-26T08:22:51.845Z,43.1
2016-12-26T08:23:32.373Z,43
2016-12-26T08:24:12.895Z,43.19
2016-12-26T08:24:53.416Z,43
2016-12-26T08:25:33.960Z,42.9
2016-12-26T08:26:14.487Z,43.19
2016-12-26T08:26:55.016Z,43.19
2016-12-26T08:27:35.542Z,43.19
2016-12-26T08:28:16.068Z,43.19
2016-12-26T08:28:56.587Z,42.71
2016-12-26T08:29:37.117Z,43
2016-12-26T08:30:17.644Z,43.1
2016-12-26T08:30:58.169Z,43.19
2016-12-26T08:31:38.701Z,42.81
2016-12-26T08:32:19.252Z,43.29
2016-12-26T08:32:59.793Z,43.65
2016-12-26T08:33:40.306Z,43.55
2016-12-26T08:34:20.842Z,43.74
2016-12-26T08:35:01.373Z,44.03
2016-12-26T08:35:41.911Z,43.94
2016-12-26T08:36:22.463Z,43.67
2016-12-26T08:37:02.991Z,43.36
2016-12-26T08:37:43.528Z,43.65
2016-12-26T08:38:24.070Z,43.87
2016-12-26T08:39:04.609Z,43.29
2016-12-26T08:39:45.135Z,43.29
2016-12-26T08:40:25.664Z,43.74
2016-12-26T08:41:07.199Z,43.77
2016-12-26T08:41:46.773Z,43.46
2016-12-26T08:42:27.301Z,43.65
2016-12-26T08:43:07.857Z,43.29
2016-12-26T08:43:48.424Z,43.19
2016-12-26T08:44:28.995Z,43.29
2016-12-26T08:45:09.700Z,43.1
2016-12-26T08:45:50.268Z,43.29
2016-12-26T08:46:30.835Z,43.19
2016-12-26T08:47:11.475Z,43.1
2016-12-26T08:47:52.037Z,42.9
2016-12-26T08:48:32.597Z,43.19
2016-12-26T08:49:13.180Z,42.9